Terminal Aerodrome Forecast
Issued by NWS

Home | Current Version | Previous Version | Text Only | Print | Product List | Glossary On
Versions: 1 2 3 4 5 6 7 8 9 10 11 12 13 14 15 16 17 18
000
FTUS42 KGSP 011125
TAFGMU
TAF
KGMU 011125Z 0112/0212 04007KT P6SM -FZRA OVC017
      TEMPO 0112/0114 5SM BR SCT017 OVC040
     FM011400 05004KT 4SM -RA OVC018
     FM011900 05003KT P6SM OVC011
     FM020000 20004KT P6SM OVC021
     FM020400 21004KT P6SM OVC004=

USA.gov is the U.S. government's official web portal to all federal, state and local government web resources and services.